createdAt,value
2022-08-04T00:01:08.405Z,16.20
2022-08-04T00:04:03.453Z,17.90
2022-08-04T00:06:39.406Z,19.38
2022-08-04T00:09:12.322Z,17.17
2022-08-04T00:11:44.320Z,18.45
2022-08-04T00:14:16.225Z,20.15
2022-08-04T00:16:44.472Z,19.25
2022-08-04T00:19:33.415Z,18.88
2022-08-04T00:22:04.129Z,17.40
2022-08-04T00:24:32.742Z,17.52
2022-08-04T00:27:00.395Z,18.92
2022-08-04T00:29:28.307Z,18.35
2022-08-04T00:31:57.865Z,19.00
2022-08-04T00:34:28.017Z,21.55
2022-08-04T00:36:56.447Z,19.60
2022-08-04T00:39:25.046Z,22.27
2022-08-04T00:41:56.081Z,23.30
2022-08-04T00:44:30.259Z,28.08
2022-08-04T00:47:00.506Z,27.40
2022-08-04T00:49:52.875Z,25.83
2022-08-04T00:52:31.876Z,24.33
2022-08-04T00:55:19.772Z,25.20
2022-08-04T00:58:11.416Z,20.17
2022-08-04T01:00:48.501Z,21.83
2022-08-04T01:03:34.496Z,19.35
2022-08-04T01:06:19.036Z,23.48
2022-08-04T01:09:08.740Z,21.02
2022-08-04T01:11:56.136Z,23.08
2022-08-04T01:14:30.140Z,15.63
2022-08-04T01:17:13.019Z,16.40
2022-08-04T01:20:08.480Z,15.50
2022-08-04T01:23:03.388Z,15.43
2022-08-04T01:25:49.297Z,16.58
2022-08-04T01:28:30.578Z,15.27
2022-08-04T01:31:06.290Z,17.35
2022-08-04T01:33:58.396Z,16.42
2022-08-04T01:36:25.108Z,16.85
2022-08-04T01:38:54.211Z,17.83
2022-08-04T01:41:32.227Z,15.38
2022-08-04T01:44:01.444Z,15.63
2022-08-04T01:46:33.226Z,17.17
2022-08-04T01:49:01.555Z,17.10
2022-08-04T01:51:30.874Z,19.33
2022-08-04T01:53:58.801Z,16.73
2022-08-04T01:56:29.231Z,17.23
2022-08-04T01:59:00.271Z,17.30
2022-08-04T02:01:27.680Z,18.38
2022-08-04T02:04:20.823Z,18.60
2022-08-04T02:07:07.977Z,17.95
2022-08-04T02:10:30.211Z,17.88
2022-08-04T02:13:18.754Z,17.60
2022-08-04T02:16:03.075Z,17.13
2022-08-04T02:19:15.085Z,19.48
2022-08-04T02:21:44.373Z,19.20
2022-08-04T02:24:15.345Z,20.92
2022-08-04T02:26:47.246Z,18.27
2022-08-04T02:29:32.232Z,17.77
2022-08-04T02:32:04.695Z,18.50
2022-08-04T02:34:33.162Z,18.73
2022-08-04T02:37:01.763Z,19.02
2022-08-04T02:39:42.425Z,21.05
2022-08-04T02:42:17.349Z,21.20
2022-08-04T02:44:51.942Z,20.42
2022-08-04T02:48:08.077Z,21.25
2022-08-04T02:50:13.355Z,22.98
2022-08-04T02:52:41.657Z,23.48
2022-08-04T02:55:10.697Z,21.73
2022-08-04T02:57:38.291Z,22.67
2022-08-04T03:00:14.473Z,24.02
2022-08-04T03:03:12.870Z,25.42
2022-08-04T03:06:01.279Z,32.72
2022-08-04T03:09:03.300Z,26.23
2022-08-04T03:11:52.543Z,29.35
2022-08-04T03:14:44.471Z,32.47
2022-08-04T03:18:06.253Z,38.22
2022-08-04T03:20:45.907Z,35.95
2022-08-04T03:23:16.328Z,42.08
2022-08-04T03:26:04.653Z,40.75
2022-08-04T03:29:03.398Z,37.30
2022-08-04T03:32:01.211Z,38.25
2022-08-04T03:34:42.603Z,35.92
2022-08-04T03:37:39.908Z,34.88
2022-08-04T03:40:22.460Z,36.83
2022-08-04T03:43:08.083Z,34.72
2022-08-04T03:45:51.055Z,34.42
2022-08-04T03:48:56.534Z,34.50
2022-08-04T03:51:57.650Z,34.97
2022-08-04T03:55:07.531Z,34.83
2022-08-04T03:57:59.964Z,39.78
2022-08-04T04:00:51.645Z,35.63
2022-08-04T04:03:37.451Z,36.67
2022-08-04T04:06:20.655Z,37.60
2022-08-04T04:09:16.293Z,38.67
2022-08-04T04:12:15.963Z,34.33
2022-08-04T04:14:52.994Z,37.33
2022-08-04T04:17:46.233Z,34.47
2022-08-04T04:20:43.605Z,32.33
2022-08-04T04:23:24.091Z,31.90
2022-08-04T04:25:56.043Z,32.78
2022-08-04T04:28:55.900Z,27.85
2022-08-04T04:32:01.025Z,30.80
2022-08-04T04:35:04.140Z,30.38
2022-08-04T04:37:48.604Z,26.30
2022-08-04T04:40:20.892Z,24.83
2022-08-04T04:43:13.021Z,24.98
2022-08-04T04:45:50.434Z,38.17
2022-08-04T04:48:17.893Z,20.88
2022-08-04T04:51:27.295Z,19.13
2022-08-04T04:54:16.490Z,23.98
2022-08-04T04:56:51.632Z,24.67
2022-08-04T04:59:23.055Z,19.45
2022-08-04T05:02:18.459Z,20.30
2022-08-04T05:05:00.904Z,21.15
2022-08-04T05:07:59.267Z,21.58
2022-08-04T05:11:29.531Z,21.10
2022-08-04T05:14:34.835Z,23.15
2022-08-04T05:17:07.234Z,19.83
2022-08-04T05:19:53.287Z,21.08
2022-08-04T05:22:25.895Z,21.95
2022-08-04T05:25:03.979Z,21.63
2022-08-04T05:27:40.013Z,20.70
2022-08-04T05:30:12.987Z,19.05
2022-08-04T05:33:09.778Z,17.42
2022-08-04T05:36:18.417Z,17.48
2022-08-04T05:38:39.362Z,18.45
2022-08-04T05:41:09.187Z,23.48
2022-08-04T05:43:41.751Z,15.13
2022-08-04T05:46:11.800Z,19.40
2022-08-04T05:48:41.079Z,21.98
2022-08-04T05:51:11.020Z,17.05
2022-08-04T05:53:39.602Z,17.27
2022-08-04T05:56:07.221Z,13.55
2022-08-04T05:58:35.349Z,14.35
2022-08-04T06:01:03.430Z,15.73
2022-08-04T06:03:32.182Z,13.98
2022-08-04T06:06:00.534Z,15.40
2022-08-04T06:08:32.756Z,18.33
2022-08-04T06:11:04.966Z,16.63
2022-08-04T06:13:59.490Z,19.08
2022-08-04T06:16:39.209Z,19.23
2022-08-04T06:19:59.803Z,19.98
2022-08-04T06:21:59.467Z,20.00
2022-08-04T06:24:28.951Z,18.70
2022-08-04T06:26:57.098Z,23.08
2022-08-04T06:29:36.887Z,23.48
2022-08-04T06:32:41.640Z,23.25
2022-08-04T06:35:13.757Z,20.95
2022-08-04T06:37:44.443Z,22.30
2022-08-04T06:40:29.667Z,21.60
2022-08-04T06:43:05.377Z,20.95
2022-08-04T06:45:48.785Z,20.25
2022-08-04T06:48:17.731Z,19.38
2022-08-04T06:51:25.897Z,20.60
2022-08-04T06:53:40.561Z,19.52
2022-08-04T06:56:25.921Z,19.45
2022-08-04T06:58:54.766Z,20.30
2022-08-04T07:01:23.499Z,21.40
2022-08-04T07:03:52.082Z,21.17
2022-08-04T07:06:27.092Z,22.75
2022-08-04T07:09:03.980Z,23.70
2022-08-04T07:11:59.206Z,23.02
2022-08-04T07:14:27.730Z,27.33
2022-08-04T07:16:56.370Z,22.80
2022-08-04T07:19:23.841Z,24.80
2022-08-04T07:22:17.721Z,24.75
2022-08-04T07:24:41.534Z,26.27
2022-08-04T07:27:10.066Z,26.15
2022-08-04T07:29:38.455Z,26.48
2022-08-04T07:32:06.597Z,25.38
2022-08-04T07:34:35.077Z,25.63
2022-08-04T07:37:04.356Z,26.95
2022-08-04T07:39:47.679Z,24.80
2022-08-04T07:42:19.419Z,27.25
2022-08-04T07:44:51.801Z,26.02
2022-08-04T07:47:24.963Z,25.58
2022-08-04T07:49:58.099Z,25.80
2022-08-04T07:52:29.005Z,23.33
2022-08-04T07:54:57.368Z,22.55
2022-08-04T07:57:40.131Z,22.40
2022-08-04T08:00:19.678Z,23.85
2022-08-04T08:02:53.510Z,25.17
2022-08-04T08:05:25.272Z,24.27
2022-08-04T08:08:02.856Z,24.38
2022-08-04T08:10:42.411Z,20.85
2022-08-04T08:13:18.876Z,23.08
2022-08-04T08:16:10.461Z,22.08
2022-08-04T08:18:54.065Z,22.27
2022-08-04T08:21:23.113Z,20.38
2022-08-04T08:23:56.556Z,22.63
2022-08-04T08:26:45.303Z,18.58
2022-08-04T08:29:21.085Z,19.02
2022-08-04T08:31:56.639Z,19.50
2022-08-04T08:34:31.235Z,17.45
2022-08-04T08:37:34.638Z,16.00
2022-08-04T08:40:18.776Z,17.40
2022-08-04T08:44:03.713Z,16.55
2022-08-04T08:50:04.028Z,15.82
2022-08-04T08:53:17.651Z,16.55
2022-08-04T08:56:11.000Z,15.20
2022-08-04T08:58:46.354Z,13.10
2022-08-04T09:02:12.332Z,12.18
2022-08-04T09:05:06.527Z,9.98
2022-08-04T09:10:53.267Z,10.95
2022-08-04T09:13:35.228Z,12.20
2022-08-04T09:16:32.584Z,12.13
2022-08-04T09:19:08.460Z,12.23
2022-08-04T09:22:25.668Z,21.42
2022-08-04T09:25:27.476Z,14.32
2022-08-04T09:28:09.075Z,16.98
2022-08-04T09:30:57.339Z,15.68
2022-08-04T09:33:45.545Z,20.10
2022-08-04T09:36:47.003Z,19.58
2022-08-04T09:39:15.536Z,15.93
2022-08-04T09:41:55.261Z,16.15
2022-08-04T09:44:57.451Z,16.67
2022-08-04T09:47:39.523Z,16.33
2022-08-04T09:50:22.900Z,20.98
2022-08-04T09:53:06.892Z,15.60
2022-08-04T09:55:53.665Z,15.05
2022-08-04T09:58:34.328Z,15.57
2022-08-04T10:01:09.757Z,26.40
2022-08-04T10:03:55.533Z,15.65
2022-08-04T10:10:10.942Z,15.68
2022-08-04T10:12:57.087Z,14.40
2022-08-04T10:15:57.686Z,15.05
2022-08-04T10:19:07.797Z,16.50
2022-08-04T10:29:13.873Z,17.27
2022-08-04T10:32:29.341Z,14.93
2022-08-04T10:35:24.338Z,17.63
2022-08-04T10:38:15.287Z,21.45
2022-08-04T10:41:05.377Z,19.33
2022-08-04T10:43:37.152Z,16.95
2022-08-04T10:46:18.386Z,15.98
2022-08-04T10:49:09.940Z,17.55
2022-08-04T10:51:59.711Z,15.82
2022-08-04T10:54:52.837Z,13.77
2022-08-04T10:57:33.930Z,13.70
2022-08-04T11:00:07.462Z,14.05
2022-08-04T11:02:44.209Z,14.13
2022-08-04T11:05:25.938Z,14.93
2022-08-04T11:08:01.342Z,14.27
2022-08-04T11:10:43.608Z,13.38
2022-08-04T12:05:01.041Z,12.65
2022-08-04T12:07:54.253Z,13.15
2022-08-04T12:16:53.736Z,14.75
2022-08-04T12:20:05.316Z,14.07
2022-08-04T12:26:36.780Z,12.82
2022-08-04T12:29:10.922Z,12.25
2022-08-04T12:31:47.579Z,14.63
2022-08-04T12:34:19.719Z,15.52
2022-08-04T12:37:27.930Z,17.27
2022-08-04T12:40:28.278Z,14.35
2022-08-04T12:46:21.167Z,14.23
2022-08-04T12:49:02.379Z,16.15
2022-08-04T12:54:45.604Z,14.65
2022-08-04T12:57:37.352Z,14.43
2022-08-04T13:03:19.659Z,14.07
2022-08-04T13:06:21.059Z,14.25
2022-08-04T13:08:57.100Z,12.68
2022-08-04T13:11:38.865Z,12.95
2022-08-04T13:14:26.046Z,13.70
2022-08-04T13:17:12.616Z,13.55
2022-08-04T13:20:09.223Z,13.63
2022-08-04T13:22:53.574Z,13.82
2022-08-04T13:59:01.531Z,13.73
2022-08-04T14:01:35.854Z,13.30
2022-08-04T14:04:41.947Z,13.63
2022-08-04T14:07:20.838Z,13.05
2022-08-04T14:10:12.578Z,13.07
2022-08-04T14:12:47.812Z,14.57
2022-08-04T14:16:02.736Z,13.35
2022-08-04T14:21:49.789Z,12.32
2022-08-04T14:24:28.453Z,12.52
2022-08-04T14:27:00.658Z,13.15
2022-08-04T14:29:38.814Z,13.95
2022-08-04T14:32:12.966Z,12.32
2022-08-04T14:34:44.983Z,14.18
2022-08-04T14:37:20.706Z,13.93
2022-08-04T14:40:18.136Z,13.32
2022-08-04T14:42:44.158Z,15.18
2022-08-04T14:45:12.792Z,13.02
2022-08-04T14:47:52.566Z,13.25
2022-08-04T14:50:37.514Z,12.85
2022-08-04T14:53:09.761Z,13.82
2022-08-04T14:55:39.502Z,12.68
2022-08-04T14:58:35.424Z,13.48
2022-08-04T15:00:57.957Z,12.40
2022-08-04T15:03:26.080Z,13.85
2022-08-04T15:06:05.410Z,14.30
2022-08-04T15:08:35.526Z,16.55
2022-08-04T15:11:06.858Z,13.77
2022-08-04T15:13:38.611Z,13.75
2022-08-04T15:16:08.538Z,19.13
2022-08-04T15:18:37.652Z,15.38
2022-08-04T15:21:08.492Z,15.93
2022-08-04T15:23:39.223Z,12.40
2022-08-04T15:26:13.571Z,15.57
2022-08-04T15:28:47.692Z,15.73
2022-08-04T15:32:06.047Z,29.45
2022-08-04T15:34:03.891Z,26.00
2022-08-04T15:36:58.041Z,32.70
2022-08-04T15:39:49.969Z,20.52
2022-08-04T15:42:27.530Z,20.67
2022-08-04T15:45:20.418Z,22.13
2022-08-04T15:48:03.683Z,20.88
2022-08-04T15:50:33.023Z,20.27
2022-08-04T15:53:10.721Z,17.00
2022-08-04T15:55:43.034Z,18.50
2022-08-04T15:58:13.234Z,20.75
2022-08-04T16:00:50.469Z,19.92
2022-08-04T16:03:54.513Z,15.63
2022-08-04T16:07:07.377Z,17.65
2022-08-04T16:09:45.860Z,15.00
2022-08-04T16:12:54.694Z,19.92
2022-08-04T16:15:52.217Z,22.67
2022-08-04T16:18:27.320Z,17.58
2022-08-04T16:20:57.497Z,20.13
2022-08-04T16:23:56.966Z,21.15
2022-08-04T16:26:46.144Z,21.67
2022-08-04T16:29:38.051Z,25.60
2022-08-04T16:32:08.095Z,24.60
2022-08-04T16:35:00.028Z,22.60
2022-08-04T16:37:36.095Z,25.20
2022-08-04T16:40:38.494Z,21.13
2022-08-04T16:43:10.015Z,24.00
2022-08-04T16:45:59.798Z,20.52
2022-08-04T16:48:32.689Z,17.88
2022-08-04T16:51:09.858Z,17.80
2022-08-04T16:53:53.927Z,29.17
2022-08-04T16:56:36.072Z,24.02
2022-08-04T16:59:11.494Z,27.40
2022-08-04T17:01:50.854Z,21.13
2022-08-04T17:04:29.258Z,24.70
2022-08-04T17:07:10.451Z,24.58
2022-08-04T17:09:49.919Z,21.65
2022-08-04T17:12:18.758Z,24.77
2022-08-04T17:14:47.849Z,25.40
2022-08-04T17:17:23.375Z,24.52
2022-08-04T17:19:54.899Z,21.25
2022-08-04T17:22:24.443Z,24.48
2022-08-04T17:24:54.042Z,30.33
2022-08-04T17:28:09.851Z,23.63
2022-08-04T17:30:28.515Z,26.48
2022-08-04T17:32:56.394Z,26.65
2022-08-04T17:35:24.298Z,27.58
2022-08-04T17:37:55.418Z,26.30
2022-08-04T17:40:26.764Z,32.72
2022-08-04T17:44:03.431Z,33.70
2022-08-04T17:46:31.891Z,27.33
2022-08-04T17:49:01.539Z,20.02
2022-08-04T17:52:05.548Z,21.60
2022-08-04T17:54:39.018Z,15.10
2022-08-04T17:57:19.520Z,18.52
2022-08-04T17:59:57.681Z,19.52
2022-08-04T18:02:34.699Z,21.38
2022-08-04T18:05:12.239Z,18.80
2022-08-04T18:10:54.585Z,22.40
2022-08-04T18:13:29.055Z,22.42
2022-08-04T18:16:04.636Z,14.00
2022-08-04T18:18:35.101Z,24.33
2022-08-04T18:21:08.256Z,15.52
2022-08-04T18:23:43.484Z,14.02
2022-08-04T18:26:18.687Z,13.65
2022-08-04T18:28:52.118Z,15.15
2022-08-04T18:31:24.583Z,14.82
2022-08-04T18:33:57.112Z,15.35
2022-08-04T18:36:37.771Z,17.52
2022-08-04T18:42:04.503Z,12.07
2022-08-04T18:44:52.194Z,13.13
2022-08-04T18:47:58.479Z,22.30
2022-08-04T18:53:15.395Z,15.63
2022-08-04T18:58:33.601Z,17.58
2022-08-04T19:01:13.516Z,25.20
2022-08-04T19:03:53.884Z,20.25
2022-08-04T19:06:30.395Z,21.02
2022-08-04T19:08:58.366Z,21.48
2022-08-04T19:11:37.904Z,21.15
2022-08-04T19:14:14.191Z,21.27
2022-08-04T19:16:45.985Z,30.15
2022-08-04T19:19:21.078Z,31.58
2022-08-04T19:22:11.462Z,25.83
2022-08-04T19:25:01.870Z,30.80
2022-08-04T19:27:38.836Z,17.08
2022-08-04T19:30:24.369Z,21.10
2022-08-04T19:32:57.303Z,23.67
2022-08-04T19:35:28.134Z,18.65
2022-08-04T19:38:03.584Z,21.33
2022-08-04T19:40:33.436Z,23.85
2022-08-04T19:43:14.464Z,18.80
2022-08-04T19:45:50.193Z,28.35
2022-08-04T19:48:19.755Z,16.70
2022-08-04T19:50:48.680Z,22.35
2022-08-04T19:53:20.222Z,24.38
2022-08-04T19:56:10.339Z,26.25
2022-08-04T19:58:48.093Z,20.05
2022-08-04T20:01:31.226Z,18.83
2022-08-04T20:04:11.080Z,11.77
2022-08-04T20:06:39.833Z,14.25
2022-08-04T20:09:24.600Z,16.00
2022-08-04T20:11:58.132Z,20.77
2022-08-04T20:14:31.521Z,16.77
2022-08-04T20:17:02.549Z,14.70
2022-08-04T20:19:33.297Z,15.98
2022-08-04T20:22:02.669Z,18.75
2022-08-04T20:24:40.298Z,15.65
2022-08-04T20:27:16.655Z,12.77
2022-08-04T20:29:49.407Z,14.80
2022-08-04T20:32:22.589Z,13.85
2022-08-04T20:34:51.545Z,16.42
2022-08-04T20:37:23.994Z,16.55
2022-08-04T20:40:03.253Z,14.52
2022-08-04T20:42:34.028Z,13.88
2022-08-04T20:45:16.453Z,12.88
2022-08-04T20:47:53.148Z,15.82
2022-08-04T20:50:30.243Z,16.92
2022-08-04T20:53:16.692Z,13.73
2022-08-04T20:56:02.557Z,16.15
2022-08-04T20:58:31.596Z,15.88
2022-08-04T21:00:59.449Z,15.27
2022-08-04T21:03:38.777Z,14.32
2022-08-04T21:06:15.764Z,15.85
2022-08-04T21:08:43.495Z,14.40
2022-08-04T21:11:25.091Z,16.27
2022-08-04T21:14:01.101Z,14.43
2022-08-04T21:16:54.105Z,15.15
2022-08-04T21:19:22.557Z,18.20
2022-08-04T21:21:53.511Z,15.70
2022-08-04T21:24:26.321Z,19.52
2022-08-04T21:26:56.893Z,16.52
2022-08-04T21:29:29.576Z,14.05
2022-08-04T21:32:05.928Z,12.13
2022-08-04T21:34:39.218Z,13.52
2022-08-04T21:37:11.381Z,14.32
2022-08-04T21:39:58.960Z,11.85
2022-08-04T21:42:38.079Z,14.32
2022-08-04T21:45:10.564Z,20.95
2022-08-04T21:47:45.783Z,17.30
2022-08-04T21:50:14.494Z,16.23
2022-08-04T21:52:49.277Z,24.38
2022-08-04T21:55:17.586Z,13.57
2022-08-04T21:57:46.734Z,14.32
2022-08-04T22:00:18.521Z,17.80
2022-08-04T22:02:53.209Z,16.15
2022-08-04T22:05:24.245Z,16.25
2022-08-04T22:07:52.169Z,16.65
2022-08-04T22:10:31.921Z,15.32
2022-08-04T22:13:06.715Z,16.92
2022-08-04T22:16:03.871Z,14.88
2022-08-04T22:18:27.466Z,14.07
2022-08-04T22:20:55.655Z,12.45
2022-08-04T22:26:26.392Z,13.48
2022-08-04T22:28:56.517Z,15.10
2022-08-04T22:31:25.544Z,13.43
2022-08-04T22:33:54.802Z,13.18
2022-08-04T22:36:24.800Z,17.85
2022-08-04T22:39:04.393Z,12.95
2022-08-04T22:42:02.993Z,17.45
2022-08-04T22:44:22.021Z,13.45
2022-08-04T22:46:52.591Z,12.32
2022-08-04T22:49:23.782Z,12.85
2022-08-04T22:51:55.381Z,12.65
2022-08-04T22:54:29.720Z,14.48
2022-08-04T22:57:00.082Z,13.95
2022-08-04T22:59:30.267Z,12.90
2022-08-04T23:02:00.528Z,12.93
2022-08-04T23:04:35.327Z,15.18
2022-08-04T23:07:05.144Z,13.48
2022-08-04T23:09:50.121Z,19.90
2022-08-04T23:12:25.519Z,20.20
2022-08-04T23:14:57.308Z,16.02
2022-08-04T23:17:27.390Z,16.15
2022-08-04T23:19:59.649Z,22.25
2022-08-04T23:22:36.898Z,28.17
2022-08-04T23:25:06.559Z,85.90
2022-08-04T23:27:52.162Z,41.47
2022-08-04T23:30:29.441Z,13.45
2022-08-04T23:32:58.294Z,20.55
2022-08-04T23:35:25.829Z,16.75
2022-08-04T23:37:56.505Z,18.33
2022-08-04T23:40:34.262Z,13.68
2022-08-04T23:43:17.545Z,18.42
2022-08-04T23:46:06.986Z,19.45
2022-08-04T23:48:39.470Z,14.35
2022-08-04T23:51:14.079Z,14.80
2022-08-04T23:54:02.334Z,14.90
2022-08-04T23:56:33.096Z,18.45
2022-08-04T23:59:03.742Z,19.70
